createdAt,value
2023-05-21T00:01:47.550Z,16.44
2023-05-21T00:04:14.321Z,16.47
2023-05-21T00:06:41.231Z,16.33
2023-05-21T00:09:08.113Z,16.18
2023-05-21T00:11:34.828Z,16.34
2023-05-21T00:14:01.497Z,16.20
2023-05-21T00:16:28.219Z,16.27
2023-05-21T00:18:54.994Z,16.26
2023-05-21T00:21:21.640Z,16.38
2023-05-21T00:23:51.268Z,16.41
2023-05-21T00:26:18.164Z,16.27
2023-05-21T00:28:44.814Z,16.27
2023-05-21T00:31:11.628Z,16.26
2023-05-21T00:33:38.322Z,16.22
2023-05-21T00:36:05.240Z,16.19
2023-05-21T00:38:32.043Z,16.00
2023-05-21T00:41:02.470Z,16.01
2023-05-21T00:43:29.209Z,15.95
2023-05-21T00:45:55.872Z,15.91
2023-05-21T00:48:23.811Z,16.16
2023-05-21T00:50:53.053Z,16.21
2023-05-21T00:53:20.192Z,16.19
2023-05-21T00:55:46.997Z,16.15
2023-05-21T00:58:14.189Z,16.14
2023-05-21T01:00:40.850Z,16.15
2023-05-21T01:03:07.729Z,16.05
2023-05-21T01:05:34.907Z,15.84
2023-05-21T01:08:02.977Z,15.84
2023-05-21T01:10:30.600Z,15.87
2023-05-21T01:12:58.720Z,15.83
2023-05-21T01:15:25.918Z,15.79
2023-05-21T01:17:52.840Z,15.78
2023-05-21T01:20:20.396Z,15.68
2023-05-21T01:22:53.195Z,15.76
2023-05-21T01:25:20.579Z,15.73
2023-05-21T01:27:47.317Z,15.62
2023-05-21T01:30:15.805Z,15.73
2023-05-21T01:32:49.363Z,15.42
2023-05-21T01:35:30.272Z,15.69
2023-05-21T01:38:19.638Z,15.56
2023-05-21T01:40:59.461Z,15.53
2023-05-21T01:43:28.170Z,15.40
2023-05-21T01:45:56.074Z,15.24
2023-05-21T01:48:24.319Z,15.46
2023-05-21T01:50:52.106Z,15.40
2023-05-21T01:53:18.817Z,15.49
2023-05-21T01:55:45.591Z,15.38
2023-05-21T01:58:12.314Z,15.38
2023-05-21T02:00:38.985Z,15.47
2023-05-21T02:03:06.181Z,15.37
2023-05-21T02:05:32.922Z,15.25
2023-05-21T02:07:59.718Z,15.08
2023-05-21T02:10:26.388Z,15.02
2023-05-21T02:12:53.206Z,15.24
2023-05-21T02:15:20.103Z,15.30
2023-05-21T02:17:47.963Z,15.16
2023-05-21T02:20:14.678Z,15.36
2023-05-21T02:22:43.598Z,15.30
2023-05-21T02:25:11.872Z,15.48
2023-05-21T02:27:40.002Z,15.35
2023-05-21T02:30:11.912Z,15.41
2023-05-21T02:32:38.897Z,15.20
2023-05-21T02:35:06.033Z,14.97
2023-05-21T02:37:32.972Z,15.31
2023-05-21T02:40:00.964Z,15.31
2023-05-21T02:42:27.718Z,15.16
2023-05-21T02:44:54.435Z,15.34
2023-05-21T02:47:21.598Z,15.20
2023-05-21T02:49:50.513Z,15.32
2023-05-21T02:52:17.844Z,15.15
2023-05-21T02:54:45.548Z,15.05
2023-05-21T02:57:12.457Z,15.20
2023-05-21T02:59:39.462Z,15.17
2023-05-21T03:02:07.661Z,15.11
2023-05-21T03:04:34.358Z,15.06
2023-05-21T03:07:01.014Z,14.73
2023-05-21T03:09:27.923Z,14.95
2023-05-21T03:11:54.601Z,15.15
2023-05-21T03:14:21.311Z,15.05
2023-05-21T03:16:48.000Z,14.80
2023-05-21T03:19:15.446Z,14.87
2023-05-21T03:21:42.204Z,14.85
2023-05-21T03:24:08.855Z,14.81
2023-05-21T03:26:35.795Z,14.91
2023-05-21T03:29:02.473Z,14.84
2023-05-21T03:31:29.244Z,14.99
2023-05-21T03:33:55.901Z,14.77
2023-05-21T03:36:22.587Z,14.83
2023-05-21T03:38:49.443Z,14.80
2023-05-21T03:41:16.160Z,14.59
2023-05-21T03:43:45.039Z,14.68
2023-05-21T03:46:11.774Z,14.78
2023-05-21T03:48:38.527Z,14.92
2023-05-21T03:51:05.198Z,15.00
2023-05-21T03:53:34.306Z,15.15
2023-05-21T03:56:01.022Z,15.24
2023-05-21T03:58:27.667Z,15.06
2023-05-21T04:00:54.337Z,14.99
2023-05-21T04:03:21.123Z,15.26
2023-05-21T04:05:47.925Z,15.42
2023-05-21T04:08:14.653Z,15.53
2023-05-21T04:10:41.311Z,15.70
2023-05-21T04:13:07.966Z,15.83
2023-05-21T04:15:34.729Z,15.82
2023-05-21T04:18:01.850Z,15.77
2023-05-21T04:20:28.565Z,15.94
2023-05-21T04:22:55.178Z,16.03
2023-05-21T04:25:21.877Z,15.97
2023-05-21T04:27:49.160Z,16.08
2023-05-21T04:30:15.960Z,15.92
2023-05-21T04:32:42.680Z,15.79
2023-05-21T04:35:09.469Z,15.84
2023-05-21T04:37:36.125Z,16.23
2023-05-21T04:40:02.951Z,16.29
2023-05-21T04:42:29.959Z,16.29
2023-05-21T04:44:56.669Z,16.38
2023-05-21T04:47:23.361Z,16.20
2023-05-21T04:49:49.976Z,16.40
2023-05-21T04:52:16.808Z,16.42
2023-05-21T04:54:43.449Z,16.46
2023-05-21T04:57:10.083Z,16.46
2023-05-21T04:59:36.752Z,16.40
2023-05-21T05:02:06.000Z,16.54
2023-05-21T05:04:32.738Z,16.32
2023-05-21T05:06:59.468Z,16.54
2023-05-21T05:09:26.097Z,16.51
2023-05-21T05:11:52.741Z,16.68
2023-05-21T05:14:19.390Z,16.79
2023-05-21T05:16:46.064Z,16.72
2023-05-21T05:19:12.870Z,16.88
2023-05-21T05:21:39.524Z,16.90
2023-05-21T05:24:06.533Z,16.82
2023-05-21T05:26:33.130Z,17.01
2023-05-21T05:28:59.776Z,17.05
2023-05-21T05:31:26.537Z,17.06
2023-05-21T05:33:53.216Z,17.32
2023-05-21T05:36:19.985Z,17.43
2023-05-21T05:38:46.838Z,17.29
2023-05-21T05:41:13.473Z,17.31
2023-05-21T05:43:40.188Z,17.35
2023-05-21T05:46:06.899Z,17.47
2023-05-21T05:48:33.708Z,17.58
2023-05-21T05:51:00.362Z,17.71
2023-05-21T05:53:27.185Z,17.73
2023-05-21T05:55:53.964Z,17.94
2023-05-21T05:58:22.925Z,18.17
2023-05-21T06:00:49.788Z,18.16
2023-05-21T06:03:16.550Z,18.02
2023-05-21T06:05:43.406Z,18.18
2023-05-21T06:08:10.064Z,18.23
2023-05-21T06:10:36.789Z,18.41
2023-05-21T06:13:03.934Z,18.46
2023-05-21T06:15:30.602Z,18.29
2023-05-21T06:17:57.327Z,18.46
2023-05-21T06:20:23.987Z,18.49
2023-05-21T06:22:50.619Z,18.50
2023-05-21T06:25:17.305Z,18.42
2023-05-21T06:27:44.123Z,18.60
2023-05-21T06:30:11.111Z,18.76
2023-05-21T06:32:37.845Z,18.75
2023-05-21T06:35:05.207Z,18.86
2023-05-21T06:37:31.834Z,19.03
2023-05-21T06:39:58.574Z,19.04
2023-05-21T06:42:25.295Z,19.17
2023-05-21T06:44:51.950Z,19.25
2023-05-21T06:47:18.594Z,19.50
2023-05-21T06:49:45.299Z,19.48
2023-05-21T06:52:12.117Z,19.34
2023-05-21T06:54:38.797Z,19.40
2023-05-21T06:57:05.708Z,19.52
2023-05-21T06:59:32.394Z,19.65
2023-05-21T07:02:00.150Z,19.77
2023-05-21T07:04:27.819Z,19.90
2023-05-21T07:06:54.517Z,19.93
2023-05-21T07:09:21.147Z,20.07
2023-05-21T07:11:47.831Z,20.10
2023-05-21T07:14:14.487Z,20.03
2023-05-21T07:16:41.230Z,20.05
2023-05-21T07:19:07.943Z,20.31
2023-05-21T07:21:34.665Z,20.58
2023-05-21T07:24:01.399Z,20.66
2023-05-21T07:26:28.139Z,20.62
2023-05-21T07:28:54.809Z,20.50
2023-05-21T07:31:21.527Z,20.65
2023-05-21T07:33:48.218Z,20.54
2023-05-21T07:36:14.853Z,20.86
2023-05-21T07:38:41.490Z,21.03
2023-05-21T07:41:08.291Z,21.27
2023-05-21T07:43:36.022Z,21.18
2023-05-21T07:46:03.016Z,21.20
2023-05-21T07:48:29.891Z,21.52
2023-05-21T07:50:58.170Z,21.26
2023-05-21T07:53:24.830Z,21.39
2023-05-21T07:55:51.503Z,21.45
2023-05-21T07:58:18.688Z,21.47
2023-05-21T08:00:46.546Z,21.50
2023-05-21T08:03:17.227Z,21.61
2023-05-21T08:05:47.705Z,21.73
2023-05-21T08:08:18.112Z,21.95
2023-05-21T08:10:45.386Z,21.83
2023-05-21T08:13:12.961Z,21.98
2023-05-21T08:15:39.696Z,21.96
2023-05-21T08:18:06.457Z,22.04
2023-05-21T08:20:33.617Z,22.23
2023-05-21T08:23:00.771Z,22.23
2023-05-21T08:25:27.582Z,22.46
2023-05-21T08:27:54.577Z,22.36
2023-05-21T08:30:21.491Z,22.45
2023-05-21T08:32:49.080Z,22.52
2023-05-21T08:35:16.054Z,22.51
2023-05-21T08:37:42.825Z,22.75
2023-05-21T08:40:10.233Z,22.85
2023-05-21T08:42:43.994Z,22.96
2023-05-21T08:45:12.808Z,22.82
2023-05-21T08:47:42.618Z,23.04
2023-05-21T08:50:15.173Z,23.05
2023-05-21T08:52:42.498Z,23.12
2023-05-21T08:55:09.647Z,23.05
2023-05-21T08:57:37.413Z,23.12
2023-05-21T09:00:04.757Z,23.36
2023-05-21T09:02:34.911Z,23.33
2023-05-21T09:05:02.277Z,23.17
2023-05-21T09:07:29.600Z,23.42
2023-05-21T09:09:58.337Z,23.53
2023-05-21T09:12:25.238Z,23.60
2023-05-21T09:14:53.126Z,23.48
2023-05-21T09:17:20.568Z,23.77
2023-05-21T09:20:09.217Z,23.81
2023-05-21T09:22:49.040Z,24.10
2023-05-21T09:25:20.681Z,24.01
2023-05-21T09:27:47.706Z,24.01
2023-05-21T09:30:16.469Z,24.10
2023-05-21T09:32:44.639Z,24.12
2023-05-21T09:35:15.439Z,24.15
2023-05-21T09:37:43.538Z,24.26
2023-05-21T09:40:17.634Z,24.26
2023-05-21T09:42:51.913Z,24.31
2023-05-21T09:45:23.887Z,24.50
2023-05-21T09:47:52.023Z,24.57
2023-05-21T09:50:20.775Z,24.79
2023-05-21T09:52:49.652Z,24.80
2023-05-21T09:55:17.350Z,24.98
2023-05-21T09:57:47.624Z,24.73
2023-05-21T10:00:28.114Z,24.56
2023-05-21T10:02:56.704Z,24.84
2023-05-21T10:05:33.650Z,24.84
2023-05-21T10:08:03.102Z,24.99
2023-05-21T10:10:31.700Z,25.16
2023-05-21T10:13:06.014Z,25.12
2023-05-21T10:15:38.961Z,24.98
2023-05-21T10:18:07.064Z,24.82
2023-05-21T10:20:35.160Z,25.00
2023-05-21T10:23:02.452Z,25.13
2023-05-21T10:25:29.270Z,25.10
2023-05-21T10:27:56.087Z,25.28
2023-05-21T10:30:24.349Z,25.51
2023-05-21T10:32:51.529Z,25.44
2023-05-21T10:35:18.559Z,25.57
2023-05-21T10:37:48.708Z,25.67
2023-05-21T10:40:15.364Z,25.76
2023-05-21T10:43:28.886Z,25.86
2023-05-21T10:46:12.066Z,26.09
2023-05-21T10:48:54.283Z,26.07
2023-05-21T10:51:28.533Z,26.04
2023-05-21T10:54:25.468Z,26.02
2023-05-21T10:57:19.624Z,26.07
2023-05-21T10:59:47.493Z,26.08
2023-05-21T11:02:15.956Z,26.09
2023-05-21T11:04:45.671Z,26.23
2023-05-21T11:07:13.330Z,26.32
2023-05-21T11:09:39.963Z,26.19
2023-05-21T11:12:07.009Z,26.43
2023-05-21T11:14:38.948Z,26.40
2023-05-21T11:17:37.290Z,26.43
2023-05-21T11:20:13.870Z,26.37
2023-05-21T11:22:40.806Z,26.64
2023-05-21T11:25:07.761Z,26.59
2023-05-21T11:27:42.102Z,26.39
2023-05-21T11:30:14.737Z,26.65
2023-05-21T11:33:10.316Z,26.78
2023-05-21T11:35:46.214Z,26.62
2023-05-21T11:38:12.926Z,26.48
2023-05-21T11:40:50.883Z,26.80
2023-05-21T11:43:18.531Z,26.74
2023-05-21T11:45:45.288Z,26.94
2023-05-21T11:48:13.864Z,27.03
2023-05-21T11:50:41.217Z,27.13
2023-05-21T11:53:08.275Z,27.12
2023-05-21T11:55:38.755Z,26.95
2023-05-21T11:58:05.928Z,27.17
2023-05-21T12:00:38.799Z,26.96
2023-05-21T12:03:05.731Z,27.13
2023-05-21T12:05:45.313Z,27.36
2023-05-21T12:08:12.013Z,27.48
2023-05-21T12:10:38.722Z,27.40
2023-05-21T12:13:05.521Z,27.02
2023-05-21T12:15:32.299Z,26.73
2023-05-21T12:17:59.063Z,27.02
2023-05-21T12:20:26.882Z,27.14
2023-05-21T12:22:53.698Z,27.17
2023-05-21T12:25:21.141Z,27.06
2023-05-21T12:27:49.097Z,27.10
2023-05-21T12:30:15.870Z,26.86
2023-05-21T12:32:43.387Z,27.25
2023-05-21T12:35:10.302Z,27.24
2023-05-21T12:37:36.997Z,27.30
2023-05-21T12:40:04.675Z,27.35
2023-05-21T12:42:32.656Z,27.16
2023-05-21T12:44:59.389Z,27.38
2023-05-21T12:47:28.242Z,27.12
2023-05-21T12:49:57.642Z,27.17
2023-05-21T12:52:25.086Z,27.24
2023-05-21T12:54:53.749Z,27.26
2023-05-21T12:57:22.440Z,27.66
2023-05-21T12:59:51.986Z,27.65
2023-05-21T13:02:21.897Z,27.73
2023-05-21T13:04:49.677Z,27.74
2023-05-21T13:07:18.164Z,27.71
2023-05-21T13:09:44.807Z,27.59
2023-05-21T13:12:12.575Z,27.75
2023-05-21T13:14:39.367Z,27.55
2023-05-21T13:17:06.629Z,27.52
2023-05-21T13:19:33.667Z,27.58
2023-05-21T13:22:00.486Z,27.54
2023-05-21T13:24:27.120Z,27.34
2023-05-21T13:26:53.953Z,27.59
2023-05-21T13:29:20.640Z,27.74
2023-05-21T13:31:47.325Z,27.70
2023-05-21T13:34:14.178Z,27.70
2023-05-21T13:36:41.117Z,27.69
2023-05-21T13:39:08.154Z,27.88
2023-05-21T13:41:34.862Z,28.02
2023-05-21T13:44:01.491Z,27.69
2023-05-21T13:46:28.260Z,27.88
2023-05-21T13:48:55.012Z,27.51
2023-05-21T13:51:37.480Z,27.29
2023-05-21T13:54:05.664Z,27.54
2023-05-21T13:56:35.196Z,27.76
2023-05-21T13:59:04.360Z,28.03
2023-05-21T14:01:31.020Z,27.89
2023-05-21T14:03:57.936Z,27.76
2023-05-21T14:06:24.616Z,27.84
2023-05-21T14:08:51.376Z,27.57
2023-05-21T14:11:18.154Z,27.76
2023-05-21T14:13:44.769Z,27.50
2023-05-21T14:16:11.674Z,27.55
2023-05-21T14:18:38.309Z,27.63
2023-05-21T14:21:04.983Z,27.46
2023-05-21T14:23:31.653Z,26.93
2023-05-21T14:25:58.293Z,27.03
2023-05-21T14:28:25.085Z,27.18
2023-05-21T14:30:51.731Z,27.29
2023-05-21T14:33:18.402Z,27.59
2023-05-21T14:35:45.395Z,27.88
2023-05-21T14:38:11.988Z,27.82
2023-05-21T14:40:38.714Z,27.83
2023-05-21T14:43:05.424Z,27.99
2023-05-21T14:45:32.619Z,27.82
2023-05-21T14:47:59.429Z,27.91
2023-05-21T14:50:26.071Z,27.62
2023-05-21T14:52:52.709Z,27.75
2023-05-21T14:55:19.446Z,27.85
2023-05-21T14:57:46.122Z,27.86
2023-05-21T15:00:13.160Z,27.81
2023-05-21T15:02:40.002Z,27.93
2023-05-21T15:05:06.961Z,28.06
2023-05-21T15:07:33.735Z,27.93
2023-05-21T15:10:00.396Z,27.86
2023-05-21T15:12:27.072Z,27.91
2023-05-21T15:14:53.993Z,27.86
2023-05-21T15:17:20.675Z,27.52
2023-05-21T15:19:47.315Z,27.87
2023-05-21T15:22:14.340Z,27.93
2023-05-21T15:24:41.015Z,27.82
2023-05-21T15:27:08.829Z,27.57
2023-05-21T15:29:35.481Z,27.75
2023-05-21T15:32:02.366Z,27.83
2023-05-21T15:34:29.045Z,27.85
2023-05-21T15:36:55.706Z,27.65
2023-05-21T15:39:22.413Z,27.78
2023-05-21T15:41:49.096Z,27.41
2023-05-21T15:44:15.754Z,27.35
2023-05-21T15:46:42.633Z,27.51
2023-05-21T15:49:09.298Z,27.61
2023-05-21T15:51:35.946Z,27.70
2023-05-21T15:54:02.700Z,27.87
2023-05-21T15:56:29.575Z,27.71
2023-05-21T15:58:56.345Z,27.82
2023-05-21T16:01:23.103Z,27.84
2023-05-21T16:03:49.922Z,27.52
2023-05-21T16:06:16.615Z,27.70
2023-05-21T16:08:44.610Z,27.71
2023-05-21T16:11:11.732Z,27.49
2023-05-21T16:13:38.438Z,27.32
2023-05-21T16:16:05.368Z,27.40
2023-05-21T16:18:32.153Z,27.23
2023-05-21T16:20:58.962Z,27.27
2023-05-21T16:23:25.590Z,27.73
2023-05-21T16:25:52.311Z,27.37
2023-05-21T16:28:19.220Z,27.68
2023-05-21T16:30:47.508Z,27.46
2023-05-21T16:33:14.167Z,27.52
2023-05-21T16:35:40.865Z,27.73
2023-05-21T16:38:07.701Z,27.41
2023-05-21T16:40:34.406Z,27.61
2023-05-21T16:43:03.706Z,27.88
2023-05-21T16:45:38.826Z,28.08
2023-05-21T16:48:05.946Z,28.07
2023-05-21T16:50:32.920Z,27.70
2023-05-21T16:52:59.864Z,27.48
2023-05-21T16:55:26.486Z,27.48
2023-05-21T16:57:53.224Z,27.29
2023-05-21T17:00:20.126Z,26.97
2023-05-21T17:02:47.055Z,26.75
2023-05-21T17:05:16.869Z,26.93
2023-05-21T17:07:43.998Z,26.79
2023-05-21T17:10:10.831Z,26.46
2023-05-21T17:12:37.524Z,26.16
2023-05-21T17:15:04.644Z,26.01
2023-05-21T17:17:31.323Z,25.88
2023-05-21T17:19:58.087Z,25.88
2023-05-21T17:22:24.801Z,25.68
2023-05-21T17:24:51.581Z,25.73
2023-05-21T17:27:18.324Z,25.51
2023-05-21T17:29:44.963Z,25.39
2023-05-21T17:32:11.993Z,25.24
2023-05-21T17:34:39.151Z,25.03
2023-05-21T17:37:05.796Z,25.09
2023-05-21T17:39:32.454Z,24.90
2023-05-21T17:41:59.152Z,24.78
2023-05-21T17:44:25.821Z,24.65
2023-05-21T17:46:52.672Z,24.51
2023-05-21T17:49:19.646Z,24.45
2023-05-21T17:51:46.372Z,24.26
2023-05-21T17:54:13.104Z,24.21
2023-05-21T17:56:39.758Z,24.14
2023-05-21T17:59:10.416Z,23.99
2023-05-21T18:01:39.485Z,23.90
2023-05-21T18:04:07.188Z,23.96
2023-05-21T18:06:33.870Z,23.80
2023-05-21T18:09:00.506Z,23.69
2023-05-21T18:11:27.216Z,23.55
2023-05-21T18:13:54.152Z,23.46
2023-05-21T18:16:20.980Z,23.36
2023-05-21T18:18:47.838Z,23.18
2023-05-21T18:21:14.688Z,23.04
2023-05-21T18:23:41.371Z,22.88
2023-05-21T18:26:08.035Z,22.69
2023-05-21T18:28:37.606Z,22.69
2023-05-21T18:31:04.313Z,22.69
2023-05-21T18:33:31.244Z,22.57
2023-05-21T18:35:58.599Z,22.51
2023-05-21T18:38:25.304Z,22.40
2023-05-21T18:40:51.938Z,22.23
2023-05-21T18:43:18.709Z,22.23
2023-05-21T18:45:46.628Z,21.94
2023-05-21T18:48:14.552Z,21.73
2023-05-21T18:50:41.248Z,21.45
2023-05-21T18:53:07.975Z,21.49
2023-05-21T18:55:34.674Z,21.36
2023-05-21T18:58:01.522Z,21.44
2023-05-21T19:00:28.472Z,21.39
2023-05-21T19:02:56.170Z,21.46
2023-05-21T19:05:22.920Z,21.40
2023-05-21T19:07:49.662Z,21.27
2023-05-21T19:10:16.454Z,21.26
2023-05-21T19:12:43.643Z,21.20
2023-05-21T19:15:10.897Z,21.14
2023-05-21T19:17:38.101Z,20.99
2023-05-21T19:20:08.834Z,20.97
2023-05-21T19:22:35.931Z,20.96
2023-05-21T19:25:03.520Z,20.76
2023-05-21T19:27:30.206Z,20.61
2023-05-21T19:29:56.964Z,20.48
2023-05-21T19:32:23.882Z,20.58
2023-05-21T19:34:50.934Z,20.46
2023-05-21T19:37:17.616Z,20.41
2023-05-21T19:39:44.442Z,20.38
2023-05-21T19:42:11.197Z,20.40
2023-05-21T19:44:39.887Z,20.40
2023-05-21T19:47:07.098Z,20.39
2023-05-21T19:49:36.194Z,20.45
2023-05-21T19:52:04.765Z,20.40
2023-05-21T19:54:31.436Z,20.36
2023-05-21T19:56:58.123Z,20.24
2023-05-21T19:59:24.723Z,20.08
2023-05-21T20:01:51.404Z,19.99
2023-05-21T20:04:18.362Z,19.87
2023-05-21T20:06:45.123Z,19.73
2023-05-21T20:09:11.923Z,19.66
2023-05-21T20:11:38.722Z,19.65
2023-05-21T20:14:05.385Z,19.55
2023-05-21T20:16:32.103Z,19.47
2023-05-21T20:18:58.795Z,19.38
2023-05-21T20:21:25.751Z,19.51
2023-05-21T20:23:53.380Z,19.45
2023-05-21T20:26:20.193Z,19.54
2023-05-21T20:28:46.914Z,19.44
2023-05-21T20:31:13.793Z,19.32
2023-05-21T20:33:40.523Z,19.32
2023-05-21T20:36:08.105Z,19.18
2023-05-21T20:38:34.812Z,19.15
2023-05-21T20:41:01.669Z,19.18
2023-05-21T20:43:28.370Z,19.19
2023-05-21T20:45:55.156Z,19.26
2023-05-21T20:48:21.829Z,19.13
2023-05-21T20:50:48.515Z,19.23
2023-05-21T20:53:15.314Z,19.11
2023-05-21T20:55:42.846Z,19.05
2023-05-21T20:58:09.600Z,19.12
2023-05-21T21:00:36.375Z,19.16
2023-05-21T21:03:03.112Z,19.16
2023-05-21T21:05:30.530Z,19.20
2023-05-21T21:07:57.215Z,19.19
2023-05-21T21:10:23.958Z,19.16
2023-05-21T21:12:50.625Z,19.19
2023-05-21T21:15:17.612Z,19.22
2023-05-21T21:17:44.443Z,19.25
2023-05-21T21:20:11.524Z,19.20
2023-05-21T21:22:38.358Z,19.11
2023-05-21T21:25:05.450Z,19.18
2023-05-21T21:27:32.410Z,19.09
2023-05-21T21:29:59.284Z,19.22
2023-05-21T21:32:26.594Z,18.91
2023-05-21T21:34:53.275Z,19.06
2023-05-21T21:37:19.939Z,18.78
2023-05-21T21:39:46.744Z,18.68
2023-05-21T21:42:13.506Z,19.02
2023-05-21T21:44:40.131Z,18.77
2023-05-21T21:47:06.895Z,18.67
2023-05-21T21:49:34.379Z,18.70
2023-05-21T21:52:01.207Z,18.56
2023-05-21T21:54:27.977Z,18.51
2023-05-21T21:56:54.787Z,18.49
2023-05-21T21:59:21.639Z,18.46
2023-05-21T22:01:48.478Z,18.39
2023-05-21T22:04:15.274Z,18.39
2023-05-21T22:06:42.075Z,18.26
2023-05-21T22:09:08.792Z,18.23
2023-05-21T22:11:35.496Z,18.36
2023-05-21T22:14:02.196Z,18.62
2023-05-21T22:16:28.867Z,18.85
2023-05-21T22:18:55.650Z,18.78
2023-05-21T22:21:22.326Z,19.04
2023-05-21T22:23:48.977Z,18.88
2023-05-21T22:26:15.682Z,18.70
2023-05-21T22:28:42.364Z,18.81
2023-05-21T22:31:09.369Z,18.47
2023-05-21T22:33:36.187Z,18.57
2023-05-21T22:36:02.956Z,18.83
2023-05-21T22:38:29.812Z,18.31
2023-05-21T22:40:56.834Z,18.16
2023-05-21T22:43:23.725Z,17.91
2023-05-21T22:45:50.410Z,18.05
2023-05-21T22:48:17.019Z,18.21
2023-05-21T22:50:44.658Z,18.05
2023-05-21T22:53:11.371Z,18.00
2023-05-21T22:55:38.089Z,17.87
2023-05-21T22:58:04.732Z,18.03
2023-05-21T23:00:31.653Z,17.91
2023-05-21T23:02:58.644Z,17.96
2023-05-21T23:05:25.360Z,18.04
2023-05-21T23:07:52.120Z,18.01
2023-05-21T23:10:19.211Z,18.02
2023-05-21T23:12:46.111Z,17.64
2023-05-21T23:15:12.876Z,17.60
2023-05-21T23:17:39.502Z,17.60
2023-05-21T23:20:07.651Z,17.68
2023-05-21T23:22:35.241Z,17.65
2023-05-21T23:25:02.579Z,17.60
2023-05-21T23:27:29.462Z,17.52
2023-05-21T23:29:56.150Z,17.60
2023-05-21T23:32:22.830Z,17.65
2023-05-21T23:34:49.471Z,17.46
2023-05-21T23:37:16.232Z,17.38
2023-05-21T23:39:42.986Z,17.13
2023-05-21T23:42:09.839Z,17.13
2023-05-21T23:44:36.476Z,17.18
2023-05-21T23:47:03.316Z,17.32
2023-05-21T23:49:29.945Z,17.63
2023-05-21T23:51:56.710Z,17.67
2023-05-21T23:54:23.354Z,17.60
2023-05-21T23:56:50.067Z,17.43
2023-05-21T23:59:18.459Z,17.08
